Flight Track Log - Related Links

Times and Time Zones

All times are in EDT time to prevent confusion due to time zone crossing. See the ASQ6151 flight status page for this flight to view local times or setup timezone preferences in your user account.

Time Position Orientation Groundspeed Altitude Reporting Facility
EDT Latitude Longitude Course Direction KTS MPH feet Rate Location/Type
Wed 05:38:51 AM 39.1333 -76.7000 261° West 191 220 4,400  Level Potomac TRACON
Wed 05:39:51 AM 39.1500 -76.7667 288° West 220 253 6,100 1,842 Climbing Potomac TRACON
Wed 05:40:45 AM 39.1667 -76.8333 288° West 236 272 7,900 1,882 Climbing Potomac TRACON
Wed 05:41:00 AM 39.0843 -77.2438 211° Southwest  Level FlightAware Approximate
Wed 05:41:33 AM 39.1500 -76.9000 252° West 252 290 9,300  Level Potomac TRACON
Wed 05:42:00 AM 38.9995 -77.3194 256° West  Level FlightAware Approximate
Wed 05:43:00 AM 38.9713 -77.4481 252° West  Level FlightAware Approximate
Wed 05:44:00 AM 38.9526 -77.5794 261° West  Level FlightAware Approximate
Wed 05:44:05 AM 39.1181 -77.1567 261° West 301 346 12,100  Level Washington Center
Wed 05:45:03 AM 39.1017 -77.2739 260° West 322 371 13,200 1,008 Climbing Washington Center
Wed 05:46:04 AM 39.0833 -77.3992 259° West 344 396 14,100 1,000 Climbing Washington Center
Wed 05:47:03 AM 39.0647 -77.5244 259° West 358 412 15,200 1,109 Climbing Washington Center
Wed 05:48:03 AM 39.0436 -77.6656 259° West 364 419 16,300 992 Climbing Washington Center
Wed 05:49:04 AM 39.0269 -77.7800 259° West 369 425 17,200 807 Climbing Washington Center
Wed 05:50:02 AM 39.0097 -77.9264 261° West 375 432 17,900 843 Climbing Washington Center
Wed 05:51:05 AM 39.0153 -78.0547 273° West 370 426 18,900 950 Climbing Washington Center
Wed 05:52:02 AM 39.0208 -78.1911 273° West 370 426 19,800 966 Climbing Washington Center
Wed 05:53:03 AM 39.0283 -78.3225 274° West 370 426 20,800 992 Climbing Washington Center
Wed 05:54:03 AM 39.0336 -78.4589 273° West 370 426 21,800 958 Climbing Washington Center
Wed 05:55:02 AM 39.0406 -78.5928 274° West 375 432 22,700 950 Climbing Washington Center
Wed 05:56:03 AM 39.0475 -78.7294 274° West 385 443 23,700 934 Climbing Washington Center
Wed 05:57:04 AM 39.0544 -78.8633 274° West 385 443 24,600 950 Climbing Washington Center
Wed 05:58:03 AM 39.0611 -79.0000 274° West 385 443 25,600 1,000 Climbing Washington Center
Wed 05:59:04 AM 39.0656 -79.1339 272° West 385 443 26,600 934 Climbing Washington Center
Wed 06:00:05 AM 39.0739 -79.2733 274° West 385 443 27,500 958 Climbing Washington Center
Wed 06:01:03 AM 39.0803 -79.4047 274° West 385 443 28,500 958 Climbing Washington Center
Wed 06:02:04 AM 39.0842 -79.5442 272° West 385 443 29,400 850 Climbing Washington Center
Wed 06:03:03 AM 39.0883 -79.6619 273° West 385 443 30,200 915 Climbing Washington Center
Wed 06:04:02 AM 39.0942 -79.7961 273° West 385 443 31,200 993 Climbing Washington Center
Wed 06:05:22 AM 39.0958 -79.9708 271° West 379 436 32,500 979 Climbing Indianapolis Center
Wed 06:06:23 AM 39.1008 -80.1083 273° West 383 441 33,500 942 Climbing Indianapolis Center
Wed 06:07:23 AM 39.1044 -80.2447 272° West 381 438 34,400 942 Climbing Indianapolis Center
Wed 06:08:24 AM 39.1089 -80.3811 272° West 382 440 35,400 787 Climbing Indianapolis Center
Wed 06:09:25 AM 39.1136 -80.5161 273° West 379 436 36,000 298 Climbing Indianapolis Center
Wed 06:10:25 AM 39.1444 -80.6536 286° West 414 476 36,000  Level Indianapolis Center
Wed 06:11:26 AM 39.2164 -80.8194 299° West 441 507 36,000  Level Indianapolis Center
Wed 06:12:26 AM 39.2783 -80.9619 299° West 455 524 36,000  Level Indianapolis Center
Wed 06:13:27 AM 39.3375 -81.1003 299° West 444 511 36,000  Level Indianapolis Center
Wed 06:14:28 AM 39.3981 -81.2422 299° West 450 518 36,000  Level Indianapolis Center
Wed 06:15:28 AM 39.4583 -81.3836 299° West 450 518 36,000  Level Indianapolis Center
Wed 06:16:29 AM 39.5175 -81.5239 299° West 448 516 36,000  Level Indianapolis Center
Wed 06:17:29 AM 39.5775 -81.6656 299° West 449 517 36,000  Level Indianapolis Center
Wed 06:18:30 AM 39.6367 -81.8072 299° West 450 518 36,000  Level Indianapolis Center
Wed 06:19:31 AM 39.6967 -81.9483 299° West 448 516 36,000  Level Indianapolis Center
Wed 06:20:31 AM 39.7600 -82.1019 298° West 450 518 36,000  Level Indianapolis Center
Wed 06:21:32 AM 39.8200 -82.2464 298° West 450 518 36,000  Level Indianapolis Center
Wed 06:22:32 AM 39.8800 -82.3925 298° West 455 524 36,000  Level Indianapolis Center
Wed 06:23:33 AM 39.9397 -82.5381 298° West 454 522 36,000  Level Indianapolis Center
Wed 06:24:34 AM 40.0000 -82.6842 298° West 455 524 36,000  Level Indianapolis Center
Wed 06:25:34 AM 40.0594 -82.8294 298° West 452 520 36,000  Level Indianapolis Center
Wed 06:26:35 AM 40.1172 -82.9739 298° West 449 517 36,000  Level Indianapolis Center
Wed 06:27:36 AM 40.1769 -83.1200 298° West 454 522 36,000  Level Indianapolis Center
Wed 06:28:36 AM 40.2353 -83.2650 298° West 452 520 36,000  Level Indianapolis Center
Wed 06:29:37 AM 40.2928 -83.4114 297° West 451 519 36,000  Level Indianapolis Center
Wed 06:30:38 AM 40.3500 -83.5564 297° West 449 517 36,000  Level Indianapolis Center
Wed 06:31:38 AM 40.4075 -83.7003 298° West 445 512 36,000  Level Indianapolis Center
Wed 06:32:39 AM 40.4644 -83.8450 297° West 445 512 36,000 -246 Level Indianapolis Center
Wed 06:33:40 AM 40.5211 -83.9892 297° West 443 510 35,500 -744 Descending Indianapolis Center
Wed 06:34:40 AM 40.5769 -84.1342 297° West 443 510 34,500 -744 Descending Indianapolis Center
Wed 06:35:41 AM 40.6322 -84.2772 297° West 437 503 34,000 -246 Descending Indianapolis Center
Wed 06:36:42 AM 40.6869 -84.4203 297° West 436 502 34,000  Level Indianapolis Center
Wed 06:37:43 AM 40.7436 -84.5658 297° West 443 510 34,000  Level Indianapolis Center
Wed 06:38:43 AM 40.8006 -84.7142 297° West 450 518 34,000  Level Indianapolis Center
Wed 06:39:54 AM 40.8625 -84.8825 296° West 451 519 34,000  Level Chicago Center
Wed 06:40:55 AM 40.9081 -85.0353 292° West 447 514 34,000  Level Chicago Center
Wed 06:41:55 AM 40.9539 -85.1911 291° West 451 519 34,000  Level Chicago Center
Wed 06:42:56 AM 41.0000 -85.3450 292° West 451 519 34,000 -836 Level Chicago Center
Wed 06:43:57 AM 41.0456 -85.4994 291° West 449 517 32,300 -1,884 Descending Chicago Center
Wed 06:44:57 AM 41.0889 -85.6497 291° West 438 504 30,200 -2,182 Descending Chicago Center
Wed 06:45:58 AM 41.1319 -85.7994 291° West 434 499 27,900 -2,213 Descending Chicago Center
Wed 06:46:59 AM 41.1753 -85.9489 291° West 433 498 25,700 -2,182 Descending Chicago Center
Wed 06:47:59 AM 41.2192 -86.1022 291° West 442 509 23,500 -2,331 Descending Chicago Center
Wed 06:49:00 AM 41.2711 -86.2836 291° West 438 504 21,000 -2,164 Descending Chicago Center
Wed 06:50:01 AM 41.3078 -86.4119 291° West 381 438 19,100 -1,918 Descending Chicago Center
Wed 06:51:02 AM 41.3419 -86.5378 290° West 365 420 17,100 -1,041 Descending Chicago Center
Wed 06:52:02 AM 41.3764 -86.6589 291° West 354 407 17,000 -347 Descending Chicago Center
Wed 06:53:03 AM 41.4111 -86.7808 291° West 349 402 16,400 -787 Descending Chicago Center
Wed 06:54:04 AM 41.4436 -86.8956 291° West 339 390 15,400 -984 Descending Chicago Center
Wed 06:55:05 AM 41.4733 -87.0064 290° West 325 374 14,400 -942 Descending Chicago Center
Wed 06:56:05 AM 41.5033 -87.1167 290° West 321 369 13,500 -942 Descending Chicago Center
Wed 06:57:06 AM 41.5486 -87.2089 303° West 310 357 12,500 -984 Descending Chicago Center
Wed 06:58:07 AM 41.5961 -87.2872 309° West 283 326 11,500 -984 Descending Chicago Center
Wed 06:59:08 AM 41.6375 -87.3528 310° West 249 287 10,500 -1,140 Descending Chicago Center
Wed 07:00:08 AM 41.6758 -87.4147 310° West 226 260 9,200 -1,190 Descending Chicago Center
Wed 07:01:09 AM 41.7219 -87.4889 310° West 220 253 8,100 -590 Descending Chicago Center
Wed 07:02:10 AM 41.7608 -87.5494 311° West 217 250 8,000 -49 Descending Chicago Center
Wed 07:03:11 AM 41.8175 -87.5681 346° North 224 258 8,000  Level Chicago Center
Wed 07:04:12 AM 41.8789 -87.5686 360° North 221 254 8,000 -98 Level Chicago Center
Wed 07:05:13 AM 41.8994 -87.5064 66° East 201 231 7,800 -545 Descending Chicago Center
Wed 07:06:13 AM 41.9228 -87.4450 63° Northeast 222 255 6,900 -893 Descending Chicago Center
Wed 07:07:14 AM 41.9575 -87.4997 310° West 208 239 6,000 -934 Descending Chicago Center
Wed 07:08:15 AM 41.9694 -87.5736 282° West 208 239 5,000 -934 Descending Chicago Center
Wed 07:09:16 AM 41.9686 -87.6467 269° West 201 231 4,100 -984 Descending Chicago Center
Wed 07:10:17 AM 41.9692 -87.7203 271° West 199 229 3,000 -1,131 Descending Chicago Center
Wed 07:11:18 AM 41.9689 -87.8072 270° West 198 228 1,800 -885 Descending Chicago Center
Wed 07:12:19 AM 41.9686 -87.8561 270° West 188 216 1,200 -590 Descending Chicago Center
Wed 07:14:00 AM 41.9667 -87.9000 304° West  Level FlightAware Approximate

Login

Don't have an account? Register now (free) for customized features, flight alerts, and more!